sensor_id;sensor_type;location;lat;lon;timestamp;P1;durP1;ratioP1;P2;durP2;ratioP2
16705;SDS011;8469;60.136;15.180;2023-03-21T00:00:46;2.55;;;1.10;;
16705;SDS011;8469;60.136;15.180;2023-03-21T00:03:14;0.90;;;0.90;;
16705;SDS011;8469;60.136;15.180;2023-03-21T00:05:42;1.22;;;0.90;;
16705;SDS011;8469;60.136;15.180;2023-03-21T00:08:11;1.42;;;1.20;;
16705;SDS011;8469;60.136;15.180;2023-03-21T00:10:38;1.17;;;1.07;;
16705;SDS011;8469;60.136;15.180;2023-03-21T00:13:06;1.82;;;1.10;;
16705;SDS011;8469;60.136;15.180;2023-03-21T00:15:34;2.00;;;1.10;;
16705;SDS011;8469;60.136;15.180;2023-03-21T00:18:03;2.27;;;1.00;;
16705;SDS011;8469;60.136;15.180;2023-03-21T00:20:32;2.08;;;1.10;;
16705;SDS011;8469;60.136;15.180;2023-03-21T00:23:03;1.12;;;0.90;;
16705;SDS011;8469;60.136;15.180;2023-03-21T00:25:31;0.90;;;0.90;;
16705;SDS011;8469;60.136;15.180;2023-03-21T00:27:59;1.45;;;1.35;;
16705;SDS011;8469;60.136;15.180;2023-03-21T00:30:26;2.57;;;2.37;;
16705;SDS011;8469;60.136;15.180;2023-03-21T00:32:54;1.00;;;1.00;;
16705;SDS011;8469;60.136;15.180;2023-03-21T00:35:21;1.00;;;1.00;;
16705;SDS011;8469;60.136;15.180;2023-03-21T00:37:48;2.00;;;0.93;;
16705;SDS011;8469;60.136;15.180;2023-03-21T00:40:16;1.45;;;0.93;;
16705;SDS011;8469;60.136;15.180;2023-03-21T00:42:43;0.90;;;0.90;;
16705;SDS011;8469;60.136;15.180;2023-03-21T00:45:11;1.17;;;0.90;;
16705;SDS011;8469;60.136;15.180;2023-03-21T00:47:38;0.80;;;0.80;;
16705;SDS011;8469;60.136;15.180;2023-03-21T00:50:05;2.50;;;0.80;;
16705;SDS011;8469;60.136;15.180;2023-03-21T00:52:33;0.90;;;0.75;;
16705;SDS011;8469;60.136;15.180;2023-03-21T00:55:00;1.02;;;0.90;;
16705;SDS011;8469;60.136;15.180;2023-03-21T00:57:28;0.80;;;0.80;;
16705;SDS011;8469;60.136;15.180;2023-03-21T00:59:55;0.80;;;0.70;;
16705;SDS011;8469;60.136;15.180;2023-03-21T01:02:24;0.78;;;0.78;;
16705;SDS011;8469;60.136;15.180;2023-03-21T01:04:52;1.20;;;0.80;;
16705;SDS011;8469;60.136;15.180;2023-03-21T01:07:20;0.80;;;0.80;;
16705;SDS011;8469;60.136;15.180;2023-03-21T01:09:47;0.83;;;0.83;;
16705;SDS011;8469;60.136;15.180;2023-03-21T01:12:16;2.37;;;1.00;;
16705;SDS011;8469;60.136;15.180;2023-03-21T01:14:44;0.88;;;0.88;;
16705;SDS011;8469;60.136;15.180;2023-03-21T01:17:12;0.80;;;0.80;;
16705;SDS011;8469;60.136;15.180;2023-03-21T01:19:39;1.85;;;1.02;;
16705;SDS011;8469;60.136;15.180;2023-03-21T01:22:06;1.00;;;1.00;;
16705;SDS011;8469;60.136;15.180;2023-03-21T01:24:34;1.42;;;1.15;;
16705;SDS011;8469;60.136;15.180;2023-03-21T01:27:01;2.70;;;0.97;;
16705;SDS011;8469;60.136;15.180;2023-03-21T01:29:29;0.70;;;0.70;;
16705;SDS011;8469;60.136;15.180;2023-03-21T01:31:56;0.98;;;0.80;;
16705;SDS011;8469;60.136;15.180;2023-03-21T01:34:24;0.80;;;0.80;;
16705;SDS011;8469;60.136;15.180;2023-03-21T01:36:51;2.92;;;0.68;;
16705;SDS011;8469;60.136;15.180;2023-03-21T01:39:18;0.90;;;0.90;;
16705;SDS011;8469;60.136;15.180;2023-03-21T01:41:47;0.82;;;0.82;;
16705;SDS011;8469;60.136;15.180;2023-03-21T01:44:15;2.17;;;0.80;;
16705;SDS011;8469;60.136;15.180;2023-03-21T01:46:47;0.70;;;0.70;;
16705;SDS011;8469;60.136;15.180;2023-03-21T01:49:19;1.20;;;0.90;;
16705;SDS011;8469;60.136;15.180;2023-03-21T01:51:49;0.80;;;0.80;;
16705;SDS011;8469;60.136;15.180;2023-03-21T01:54:17;1.27;;;0.93;;
16705;SDS011;8469;60.136;15.180;2023-03-21T01:56:44;1.12;;;1.00;;
16705;SDS011;8469;60.136;15.180;2023-03-21T01:59:15;1.70;;;1.00;;
16705;SDS011;8469;60.136;15.180;2023-03-21T02:01:43;0.75;;;0.75;;
16705;SDS011;8469;60.136;15.180;2023-03-21T02:04:11;0.90;;;0.90;;
16705;SDS011;8469;60.136;15.180;2023-03-21T02:06:48;1.60;;;0.90;;
16705;SDS011;8469;60.136;15.180;2023-03-21T02:09:08;1.20;;;1.10;;
16705;SDS011;8469;60.136;15.180;2023-03-21T02:11:36;0.97;;;0.90;;
16705;SDS011;8469;60.136;15.180;2023-03-21T02:14:04;0.82;;;0.82;;
16705;SDS011;8469;60.136;15.180;2023-03-21T02:16:36;1.30;;;0.90;;
16705;SDS011;8469;60.136;15.180;2023-03-21T02:19:07;0.90;;;0.90;;
16705;SDS011;8469;60.136;15.180;2023-03-21T02:21:37;1.73;;;0.90;;
16705;SDS011;8469;60.136;15.180;2023-03-21T02:37:15;1.17;;;1.07;;
16705;SDS011;8469;60.136;15.180;2023-03-21T02:39:53;1.17;;;0.88;;
16705;SDS011;8469;60.136;15.180;2023-03-21T02:47:40;1.75;;;1.00;;
16705;SDS011;8469;60.136;15.180;2023-03-21T02:50:23;0.90;;;0.90;;
16705;SDS011;8469;60.136;15.180;2023-03-21T02:52:36;1.20;;;1.10;;
16705;SDS011;8469;60.136;15.180;2023-03-21T02:55:05;2.92;;;1.00;;
16705;SDS011;8469;60.136;15.180;2023-03-21T02:57:33;1.75;;;0.90;;
16705;SDS011;8469;60.136;15.180;2023-03-21T03:00:00;1.30;;;0.90;;
16705;SDS011;8469;60.136;15.180;2023-03-21T03:02:30;1.02;;;0.90;;
16705;SDS011;8469;60.136;15.180;2023-03-21T03:04:58;0.80;;;0.80;;
16705;SDS011;8469;60.136;15.180;2023-03-21T03:07:30;1.00;;;0.90;;
16705;SDS011;8469;60.136;15.180;2023-03-21T03:10:20;0.70;;;0.70;;
16705;SDS011;8469;60.136;15.180;2023-03-21T03:12:48;2.15;;;0.98;;
16705;SDS011;8469;60.136;15.180;2023-03-21T03:17:51;0.80;;;0.80;;
16705;SDS011;8469;60.136;15.180;2023-03-21T03:25:38;0.90;;;0.90;;
16705;SDS011;8469;60.136;15.180;2023-03-21T03:28:05;1.37;;;0.90;;
16705;SDS011;8469;60.136;15.180;2023-03-21T03:30:34;1.10;;;1.00;;
16705;SDS011;8469;60.136;15.180;2023-03-21T03:33:02;1.70;;;0.90;;
16705;SDS011;8469;60.136;15.180;2023-03-21T03:35:31;1.20;;;0.80;;
16705;SDS011;8469;60.136;15.180;2023-03-21T03:37:59;1.00;;;0.90;;
16705;SDS011;8469;60.136;15.180;2023-03-21T03:40:29;0.80;;;0.80;;
16705;SDS011;8469;60.136;15.180;2023-03-21T03:43:04;1.05;;;0.80;;
16705;SDS011;8469;60.136;15.180;2023-03-21T03:45:36;0.80;;;0.80;;
16705;SDS011;8469;60.136;15.180;2023-03-21T03:48:04;1.00;;;0.90;;
16705;SDS011;8469;60.136;15.180;2023-03-21T03:50:37;1.00;;;0.80;;
16705;SDS011;8469;60.136;15.180;2023-03-21T03:55:35;1.85;;;0.90;;
16705;SDS011;8469;60.136;15.180;2023-03-21T03:58:04;0.72;;;0.72;;
16705;SDS011;8469;60.136;15.180;2023-03-21T04:00:31;1.20;;;0.70;;
16705;SDS011;8469;60.136;15.180;2023-03-21T04:02:59;1.00;;;0.90;;
16705;SDS011;8469;60.136;15.180;2023-03-21T04:05:27;1.02;;;0.82;;
16705;SDS011;8469;60.136;15.180;2023-03-21T04:07:54;5.27;;;0.90;;
16705;SDS011;8469;60.136;15.180;2023-03-21T04:10:23;0.88;;;0.88;;
16705;SDS011;8469;60.136;15.180;2023-03-21T04:12:50;3.40;;;0.93;;
16705;SDS011;8469;60.136;15.180;2023-03-21T04:15:17;0.90;;;0.90;;
16705;SDS011;8469;60.136;15.180;2023-03-21T04:17:45;0.70;;;0.70;;
16705;SDS011;8469;60.136;15.180;2023-03-21T04:20:13;1.10;;;1.00;;
16705;SDS011;8469;60.136;15.180;2023-03-21T04:22:40;1.85;;;0.80;;
16705;SDS011;8469;60.136;15.180;2023-03-21T04:25:07;0.80;;;0.80;;
16705;SDS011;8469;60.136;15.180;2023-03-21T04:27:35;1.07;;;0.80;;
16705;SDS011;8469;60.136;15.180;2023-03-21T04:30:03;1.70;;;0.90;;
16705;SDS011;8469;60.136;15.180;2023-03-21T04:32:32;1.07;;;0.90;;
16705;SDS011;8469;60.136;15.180;2023-03-21T04:35:01;1.10;;;0.90;;
16705;SDS011;8469;60.136;15.180;2023-03-21T04:37:29;1.13;;;0.93;;
16705;SDS011;8469;60.136;15.180;2023-03-21T04:39:58;0.88;;;0.80;;
16705;SDS011;8469;60.136;15.180;2023-03-21T04:42:25;0.80;;;0.80;;
16705;SDS011;8469;60.136;15.180;2023-03-21T04:44:53;0.80;;;0.80;;
16705;SDS011;8469;60.136;15.180;2023-03-21T04:47:20;2.02;;;1.00;;
16705;SDS011;8469;60.136;15.180;2023-03-21T04:49:47;1.57;;;0.93;;
16705;SDS011;8469;60.136;15.180;2023-03-21T04:52:16;1.10;;;1.00;;
16705;SDS011;8469;60.136;15.180;2023-03-21T04:54:44;1.57;;;0.95;;
16705;SDS011;8469;60.136;15.180;2023-03-21T04:57:12;2.17;;;0.98;;
16705;SDS011;8469;60.136;15.180;2023-03-21T04:59:39;0.70;;;0.70;;
16705;SDS011;8469;60.136;15.180;2023-03-21T05:02:07;3.80;;;0.90;;
16705;SDS011;8469;60.136;15.180;2023-03-21T05:04:34;0.80;;;0.80;;
16705;SDS011;8469;60.136;15.180;2023-03-21T05:07:01;1.57;;;0.88;;
16705;SDS011;8469;60.136;15.180;2023-03-21T05:09:29;1.20;;;0.88;;
16705;SDS011;8469;60.136;15.180;2023-03-21T05:11:56;0.70;;;0.70;;
16705;SDS011;8469;60.136;15.180;2023-03-21T05:14:24;1.98;;;0.65;;
16705;SDS011;8469;60.136;15.180;2023-03-21T05:16:52;1.05;;;0.95;;
16705;SDS011;8469;60.136;15.180;2023-03-21T05:19:22;0.90;;;0.90;;
16705;SDS011;8469;60.136;15.180;2023-03-21T05:21:51;1.23;;;1.00;;
16705;SDS011;8469;60.136;15.180;2023-03-21T05:24:19;0.88;;;0.88;;
16705;SDS011;8469;60.136;15.180;2023-03-21T05:26:47;0.82;;;0.80;;
16705;SDS011;8469;60.136;15.180;2023-03-21T05:29:18;1.00;;;0.90;;
16705;SDS011;8469;60.136;15.180;2023-03-21T05:31:45;2.27;;;1.02;;
16705;SDS011;8469;60.136;15.180;2023-03-21T05:34:13;1.80;;;0.90;;
16705;SDS011;8469;60.136;15.180;2023-03-21T05:36:41;1.82;;;1.20;;
16705;SDS011;8469;60.136;15.180;2023-03-21T05:39:08;4.65;;;1.32;;
16705;SDS011;8469;60.136;15.180;2023-03-21T05:41:37;2.80;;;1.30;;
16705;SDS011;8469;60.136;15.180;2023-03-21T05:44:04;0.88;;;0.88;;
16705;SDS011;8469;60.136;15.180;2023-03-21T05:46:32;4.50;;;1.60;;
16705;SDS011;8469;60.136;15.180;2023-03-21T05:48:59;1.97;;;1.30;;
16705;SDS011;8469;60.136;15.180;2023-03-21T05:51:26;1.72;;;0.95;;
16705;SDS011;8469;60.136;15.180;2023-03-21T05:53:54;0.70;;;0.70;;
16705;SDS011;8469;60.136;15.180;2023-03-21T05:56:21;1.07;;;0.70;;
16705;SDS011;8469;60.136;15.180;2023-03-21T05:58:49;1.75;;;1.00;;
16705;SDS011;8469;60.136;15.180;2023-03-21T06:01:16;1.50;;;1.12;;
16705;SDS011;8469;60.136;15.180;2023-03-21T06:03:44;1.10;;;1.00;;
16705;SDS011;8469;60.136;15.180;2023-03-21T06:06:11;3.92;;;1.00;;
16705;SDS011;8469;60.136;15.180;2023-03-21T06:08:38;1.98;;;0.90;;
16705;SDS011;8469;60.136;15.180;2023-03-21T06:11:06;2.20;;;0.90;;
16705;SDS011;8469;60.136;15.180;2023-03-21T06:13:35;0.93;;;0.70;;
16705;SDS011;8469;60.136;15.180;2023-03-21T06:16:02;2.02;;;1.02;;
16705;SDS011;8469;60.136;15.180;2023-03-21T06:18:30;0.80;;;0.80;;
16705;SDS011;8469;60.136;15.180;2023-03-21T06:20:57;0.93;;;0.93;;
16705;SDS011;8469;60.136;15.180;2023-03-21T06:23:25;2.50;;;0.80;;
16705;SDS011;8469;60.136;15.180;2023-03-21T06:25:52;0.80;;;0.80;;
16705;SDS011;8469;60.136;15.180;2023-03-21T06:28:20;0.90;;;0.90;;
16705;SDS011;8469;60.136;15.180;2023-03-21T06:30:48;2.52;;;1.00;;
16705;SDS011;8469;60.136;15.180;2023-03-21T06:33:15;1.50;;;0.90;;
16705;SDS011;8469;60.136;15.180;2023-03-21T06:35:42;1.40;;;0.90;;
16705;SDS011;8469;60.136;15.180;2023-03-21T06:38:10;0.80;;;0.80;;
16705;SDS011;8469;60.136;15.180;2023-03-21T06:40:37;0.85;;;0.85;;
16705;SDS011;8469;60.136;15.180;2023-03-21T06:43:06;0.80;;;0.80;;
16705;SDS011;8469;60.136;15.180;2023-03-21T06:45:34;0.70;;;0.70;;
16705;SDS011;8469;60.136;15.180;2023-03-21T06:48:01;1.00;;;0.90;;
16705;SDS011;8469;60.136;15.180;2023-03-21T06:50:29;0.90;;;0.72;;
16705;SDS011;8469;60.136;15.180;2023-03-21T06:52:56;0.62;;;0.60;;
16705;SDS011;8469;60.136;15.180;2023-03-21T06:55:24;2.95;;;0.85;;
16705;SDS011;8469;60.136;15.180;2023-03-21T06:57:54;1.20;;;0.87;;
16705;SDS011;8469;60.136;15.180;2023-03-21T07:00:21;0.80;;;0.50;;
16705;SDS011;8469;60.136;15.180;2023-03-21T07:02:49;2.05;;;0.82;;
16705;SDS011;8469;60.136;15.180;2023-03-21T07:05:17;0.70;;;0.70;;
16705;SDS011;8469;60.136;15.180;2023-03-21T07:07:44;0.65;;;0.65;;
16705;SDS011;8469;60.136;15.180;2023-03-21T07:10:12;0.60;;;0.45;;
16705;SDS011;8469;60.136;15.180;2023-03-21T07:12:39;0.80;;;0.80;;
16705;SDS011;8469;60.136;15.180;2023-03-21T07:15:07;0.68;;;0.62;;
16705;SDS011;8469;60.136;15.180;2023-03-21T07:17:34;1.80;;;0.70;;
16705;SDS011;8469;60.136;15.180;2023-03-21T07:20:02;0.80;;;0.60;;
16705;SDS011;8469;60.136;15.180;2023-03-21T07:22:31;0.78;;;0.78;;
16705;SDS011;8469;60.136;15.180;2023-03-21T07:24:58;1.10;;;0.80;;
16705;SDS011;8469;60.136;15.180;2023-03-21T07:27:26;1.47;;;0.80;;
16705;SDS011;8469;60.136;15.180;2023-03-21T07:29:53;0.70;;;0.70;;
16705;SDS011;8469;60.136;15.180;2023-03-21T07:32:22;0.70;;;0.70;;
16705;SDS011;8469;60.136;15.180;2023-03-21T07:34:49;0.70;;;0.70;;
16705;SDS011;8469;60.136;15.180;2023-03-21T07:37:18;1.80;;;0.80;;
16705;SDS011;8469;60.136;15.180;2023-03-21T07:39:45;1.20;;;1.10;;
16705;SDS011;8469;60.136;15.180;2023-03-21T07:42:13;1.40;;;0.90;;
16705;SDS011;8469;60.136;15.180;2023-03-21T07:44:40;2.50;;;0.80;;
16705;SDS011;8469;60.136;15.180;2023-03-21T07:47:08;0.95;;;0.78;;
16705;SDS011;8469;60.136;15.180;2023-03-21T07:49:35;0.72;;;0.72;;
16705;SDS011;8469;60.136;15.180;2023-03-21T07:52:03;1.30;;;0.80;;
16705;SDS011;8469;60.136;15.180;2023-03-21T07:54:33;1.37;;;0.70;;
16705;SDS011;8469;60.136;15.180;2023-03-21T07:57:00;0.70;;;0.70;;
16705;SDS011;8469;60.136;15.180;2023-03-21T07:59:27;1.65;;;0.80;;
16705;SDS011;8469;60.136;15.180;2023-03-21T08:01:55;1.80;;;0.90;;
16705;SDS011;8469;60.136;15.180;2023-03-21T08:04:23;1.50;;;1.10;;
16705;SDS011;8469;60.136;15.180;2023-03-21T08:06:51;2.42;;;0.80;;
16705;SDS011;8469;60.136;15.180;2023-03-21T08:09:18;1.52;;;0.80;;
16705;SDS011;8469;60.136;15.180;2023-03-21T08:11:46;1.50;;;0.90;;
16705;SDS011;8469;60.136;15.180;2023-03-21T08:14:13;2.05;;;1.02;;
16705;SDS011;8469;60.136;15.180;2023-03-21T08:16:41;1.20;;;1.00;;
16705;SDS011;8469;60.136;15.180;2023-03-21T08:19:08;1.77;;;1.17;;
16705;SDS011;8469;60.136;15.180;2023-03-21T08:21:35;2.42;;;1.25;;
16705;SDS011;8469;60.136;15.180;2023-03-21T08:24:04;2.20;;;1.10;;
16705;SDS011;8469;60.136;15.180;2023-03-21T08:26:32;2.85;;;1.07;;
16705;SDS011;8469;60.136;15.180;2023-03-21T08:28:59;1.40;;;1.12;;
16705;SDS011;8469;60.136;15.180;2023-03-21T08:31:27;1.73;;;0.90;;
16705;SDS011;8469;60.136;15.180;2023-03-21T08:33:55;1.00;;;0.80;;
16705;SDS011;8469;60.136;15.180;2023-03-21T08:36:22;2.00;;;0.90;;
16705;SDS011;8469;60.136;15.180;2023-03-21T08:38:50;1.20;;;0.93;;
16705;SDS011;8469;60.136;15.180;2023-03-21T08:41:19;1.37;;;0.95;;
16705;SDS011;8469;60.136;15.180;2023-03-21T08:43:49;0.70;;;0.70;;
16705;SDS011;8469;60.136;15.180;2023-03-21T08:46:16;1.10;;;0.90;;
16705;SDS011;8469;60.136;15.180;2023-03-21T08:48:44;2.00;;;1.10;;
16705;SDS011;8469;60.136;15.180;2023-03-21T08:51:11;2.15;;;1.65;;
16705;SDS011;8469;60.136;15.180;2023-03-21T08:53:39;2.10;;;1.30;;
16705;SDS011;8469;60.136;15.180;2023-03-21T08:56:09;2.40;;;1.20;;
16705;SDS011;8469;60.136;15.180;2023-03-21T08:58:37;2.47;;;1.07;;
16705;SDS011;8469;60.136;15.180;2023-03-21T09:01:05;1.25;;;1.15;;
16705;SDS011;8469;60.136;15.180;2023-03-21T09:03:37;2.30;;;1.00;;
16705;SDS011;8469;60.136;15.180;2023-03-21T09:06:04;1.50;;;0.90;;
16705;SDS011;8469;60.136;15.180;2023-03-21T09:08:33;0.90;;;0.90;;
16705;SDS011;8469;60.136;15.180;2023-03-21T09:11:01;1.10;;;0.95;;
16705;SDS011;8469;60.136;15.180;2023-03-21T09:13:28;0.90;;;0.90;;
16705;SDS011;8469;60.136;15.180;2023-03-21T09:15:56;1.52;;;1.12;;
16705;SDS011;8469;60.136;15.180;2023-03-21T09:18:25;1.85;;;0.93;;
16705;SDS011;8469;60.136;15.180;2023-03-21T09:20:54;1.20;;;1.10;;
16705;SDS011;8469;60.136;15.180;2023-03-21T09:23:21;2.15;;;0.95;;
16705;SDS011;8469;60.136;15.180;2023-03-21T09:25:49;4.12;;;1.20;;
16705;SDS011;8469;60.136;15.180;2023-03-21T09:28:17;3.73;;;1.17;;
16705;SDS011;8469;60.136;15.180;2023-03-21T09:30:44;5.57;;;1.50;;
16705;SDS011;8469;60.136;15.180;2023-03-21T09:33:12;2.35;;;1.25;;
16705;SDS011;8469;60.136;15.180;2023-03-21T09:35:41;2.55;;;0.90;;
16705;SDS011;8469;60.136;15.180;2023-03-21T09:38:08;2.60;;;1.40;;
16705;SDS011;8469;60.136;15.180;2023-03-21T09:40:51;3.50;;;1.40;;
16705;SDS011;8469;60.136;15.180;2023-03-21T09:43:28;4.87;;;1.22;;
16705;SDS011;8469;60.136;15.180;2023-03-21T09:45:55;2.40;;;1.20;;
16705;SDS011;8469;60.136;15.180;2023-03-21T09:50:53;3.67;;;1.20;;
16705;SDS011;8469;60.136;15.180;2023-03-21T09:53:32;1.72;;;1.35;;
16705;SDS011;8469;60.136;15.180;2023-03-21T09:55:57;3.40;;;1.00;;
16705;SDS011;8469;60.136;15.180;2023-03-21T09:58:27;7.87;;;1.57;;
16705;SDS011;8469;60.136;15.180;2023-03-21T10:01:05;4.58;;;1.42;;
16705;SDS011;8469;60.136;15.180;2023-03-21T10:03:32;2.87;;;1.20;;
16705;SDS011;8469;60.136;15.180;2023-03-21T10:06:08;3.92;;;1.60;;
16705;SDS011;8469;60.136;15.180;2023-03-21T10:08:31;4.37;;;1.47;;
16705;SDS011;8469;60.136;15.180;2023-03-21T10:11:11;4.58;;;1.32;;
16705;SDS011;8469;60.136;15.180;2023-03-21T10:13:43;4.20;;;1.37;;
16705;SDS011;8469;60.136;15.180;2023-03-21T10:16:18;5.15;;;1.50;;
16705;SDS011;8469;60.136;15.180;2023-03-21T10:21:26;4.28;;;1.45;;
16705;SDS011;8469;60.136;15.180;2023-03-21T10:23:55;1.65;;;1.35;;
16705;SDS011;8469;60.136;15.180;2023-03-21T10:26:24;6.03;;;1.42;;
16705;SDS011;8469;60.136;15.180;2023-03-21T10:28:56;2.08;;;1.50;;
16705;SDS011;8469;60.136;15.180;2023-03-21T10:31:24;3.62;;;1.37;;
16705;SDS011;8469;60.136;15.180;2023-03-21T10:33:53;2.27;;;1.40;;
16705;SDS011;8469;60.136;15.180;2023-03-21T10:36:24;2.92;;;1.30;;
16705;SDS011;8469;60.136;15.180;2023-03-21T10:38:54;3.12;;;1.70;;
16705;SDS011;8469;60.136;15.180;2023-03-21T10:41:22;5.60;;;1.30;;
16705;SDS011;8469;60.136;15.180;2023-03-21T10:44:03;1.50;;;1.20;;
16705;SDS011;8469;60.136;15.180;2023-03-21T10:46:30;3.08;;;1.10;;
16705;SDS011;8469;60.136;15.180;2023-03-21T10:49:01;1.45;;;0.85;;
16705;SDS011;8469;60.136;15.180;2023-03-21T10:51:32;1.98;;;1.22;;
16705;SDS011;8469;60.136;15.180;2023-03-21T10:54:04;4.20;;;1.10;;
16705;SDS011;8469;60.136;15.180;2023-03-21T10:56:30;1.72;;;1.10;;
16705;SDS011;8469;60.136;15.180;2023-03-21T10:58:58;0.80;;;0.72;;
16705;SDS011;8469;60.136;15.180;2023-03-21T11:01:47;3.97;;;1.00;;
16705;SDS011;8469;60.136;15.180;2023-03-21T11:04:05;5.15;;;0.80;;
16705;SDS011;8469;60.136;15.180;2023-03-21T11:06:33;0.78;;;0.78;;
16705;SDS011;8469;60.136;15.180;2023-03-21T11:09:05;1.80;;;0.90;;
16705;SDS011;8469;60.136;15.180;2023-03-21T11:11:34;2.12;;;0.80;;
16705;SDS011;8469;60.136;15.180;2023-03-21T11:14:02;0.40;;;0.40;;
16705;SDS011;8469;60.136;15.180;2023-03-21T11:16:38;3.75;;;0.68;;
16705;SDS011;8469;60.136;15.180;2023-03-21T11:19:12;1.75;;;0.70;;
16705;SDS011;8469;60.136;15.180;2023-03-21T11:21:41;0.35;;;0.30;;
16705;SDS011;8469;60.136;15.180;2023-03-21T11:24:12;0.53;;;0.37;;
16705;SDS011;8469;60.136;15.180;2023-03-21T11:26:41;1.30;;;0.50;;
16705;SDS011;8469;60.136;15.180;2023-03-21T11:31:45;1.50;;;0.60;;
16705;SDS011;8469;60.136;15.180;2023-03-21T11:34:22;0.60;;;0.40;;
16705;SDS011;8469;60.136;15.180;2023-03-21T11:39:34;6.00;;;0.50;;
16705;SDS011;8469;60.136;15.180;2023-03-21T11:42:02;3.65;;;0.70;;
16705;SDS011;8469;60.136;15.180;2023-03-21T11:44:31;2.20;;;0.40;;
16705;SDS011;8469;60.136;15.180;2023-03-21T11:46:59;1.90;;;0.40;;
16705;SDS011;8469;60.136;15.180;2023-03-21T11:49:27;3.95;;;0.60;;
16705;SDS011;8469;60.136;15.180;2023-03-21T11:59:32;0.30;;;0.30;;
16705;SDS011;8469;60.136;15.180;2023-03-21T12:04:51;0.40;;;0.40;;
16705;SDS011;8469;60.136;15.180;2023-03-21T12:25:59;3.50;;;0.70;;
16705;SDS011;8469;60.136;15.180;2023-03-21T12:31:07;0.30;;;0.30;;
16705;SDS011;8469;60.136;15.180;2023-03-21T12:38:40;0.20;;;0.20;;
16705;SDS011;8469;60.136;15.180;2023-03-21T12:44:39;1.02;;;0.25;;
16705;SDS011;8469;60.136;15.180;2023-03-21T12:46:27;1.55;;;0.30;;
16705;SDS011;8469;60.136;15.180;2023-03-21T12:49:00;2.05;;;0.55;;
16705;SDS011;8469;60.136;15.180;2023-03-21T12:51:31;0.98;;;0.45;;
16705;SDS011;8469;60.136;15.180;2023-03-21T12:56:47;0.85;;;0.80;;
16705;SDS011;8469;60.136;15.180;2023-03-21T12:59:29;0.70;;;0.30;;
16705;SDS011;8469;60.136;15.180;2023-03-21T13:01:56;0.33;;;0.33;;
16705;SDS011;8469;60.136;15.180;2023-03-21T13:06:54;0.72;;;0.35;;
16705;SDS011;8469;60.136;15.180;2023-03-21T13:09:30;0.30;;;0.30;;
16705;SDS011;8469;60.136;15.180;2023-03-21T13:11:53;2.00;;;0.40;;
16705;SDS011;8469;60.136;15.180;2023-03-21T13:14:27;1.15;;;0.30;;
16705;SDS011;8469;60.136;15.180;2023-03-21T13:17:01;1.20;;;0.40;;
16705;SDS011;8469;60.136;15.180;2023-03-21T13:29:34;0.40;;;0.40;;
16705;SDS011;8469;60.136;15.180;2023-03-21T13:32:07;0.90;;;0.40;;
16705;SDS011;8469;60.136;15.180;2023-03-21T13:34:34;0.40;;;0.40;;
16705;SDS011;8469;60.136;15.180;2023-03-21T13:37:03;0.80;;;0.40;;
16705;SDS011;8469;60.136;15.180;2023-03-21T13:39:30;1.80;;;0.40;;
16705;SDS011;8469;60.136;15.180;2023-03-21T13:42:02;1.60;;;0.50;;
16705;SDS011;8469;60.136;15.180;2023-03-21T13:44:31;1.07;;;0.57;;
16705;SDS011;8469;60.136;15.180;2023-03-21T13:47:00;1.17;;;0.50;;
16705;SDS011;8469;60.136;15.180;2023-03-21T13:49:29;0.50;;;0.40;;
16705;SDS011;8469;60.136;15.180;2023-03-21T13:51:58;0.60;;;0.40;;
16705;SDS011;8469;60.136;15.180;2023-03-21T13:56:57;1.20;;;0.47;;
16705;SDS011;8469;60.136;15.180;2023-03-21T13:59:36;1.50;;;0.40;;
16705;SDS011;8469;60.136;15.180;2023-03-21T14:04:34;2.83;;;0.70;;
16705;SDS011;8469;60.136;15.180;2023-03-21T14:07:07;3.70;;;0.40;;
16705;SDS011;8469;60.136;15.180;2023-03-21T14:09:31;1.20;;;0.60;;
16705;SDS011;8469;60.136;15.180;2023-03-21T14:11:59;2.42;;;0.70;;
16705;SDS011;8469;60.136;15.180;2023-03-21T14:14:32;0.40;;;0.40;;
16705;SDS011;8469;60.136;15.180;2023-03-21T14:16:56;0.73;;;0.40;;
16705;SDS011;8469;60.136;15.180;2023-03-21T14:19:30;0.80;;;0.50;;
16705;SDS011;8469;60.136;15.180;2023-03-21T14:21:58;5.65;;;1.50;;
16705;SDS011;8469;60.136;15.180;2023-03-21T14:24:25;3.33;;;0.62;;
16705;SDS011;8469;60.136;15.180;2023-03-21T14:26:53;1.80;;;0.50;;
16705;SDS011;8469;60.136;15.180;2023-03-21T14:29:25;4.00;;;0.60;;
16705;SDS011;8469;60.136;15.180;2023-03-21T14:31:56;1.03;;;0.40;;
16705;SDS011;8469;60.136;15.180;2023-03-21T14:34:25;0.50;;;0.50;;
16705;SDS011;8469;60.136;15.180;2023-03-21T14:36:53;3.30;;;0.40;;
16705;SDS011;8469;60.136;15.180;2023-03-21T14:39:22;1.17;;;0.60;;
16705;SDS011;8469;60.136;15.180;2023-03-21T14:41:53;4.72;;;0.50;;
16705;SDS011;8469;60.136;15.180;2023-03-21T14:44:24;0.90;;;0.40;;
16705;SDS011;8469;60.136;15.180;2023-03-21T14:47:04;0.47;;;0.40;;
16705;SDS011;8469;60.136;15.180;2023-03-21T14:49:33;0.93;;;0.70;;
16705;SDS011;8469;60.136;15.180;2023-03-21T14:52:02;0.30;;;0.30;;
16705;SDS011;8469;60.136;15.180;2023-03-21T14:54:31;0.80;;;0.40;;
16705;SDS011;8469;60.136;15.180;2023-03-21T14:57:06;0.57;;;0.50;;
16705;SDS011;8469;60.136;15.180;2023-03-21T14:59:32;0.50;;;0.50;;
16705;SDS011;8469;60.136;15.180;2023-03-21T15:02:00;1.50;;;0.42;;
16705;SDS011;8469;60.136;15.180;2023-03-21T15:04:51;2.58;;;0.30;;
16705;SDS011;8469;60.136;15.180;2023-03-21T15:07:24;2.27;;;0.50;;
16705;SDS011;8469;60.136;15.180;2023-03-21T15:09:56;2.17;;;0.50;;
16705;SDS011;8469;60.136;15.180;2023-03-21T15:12:23;0.90;;;0.43;;
16705;SDS011;8469;60.136;15.180;2023-03-21T15:14:51;2.22;;;0.40;;
16705;SDS011;8469;60.136;15.180;2023-03-21T15:17:18;1.32;;;0.50;;
16705;SDS011;8469;60.136;15.180;2023-03-21T15:19:46;3.10;;;0.68;;
16705;SDS011;8469;60.136;15.180;2023-03-21T15:22:31;1.50;;;0.50;;
16705;SDS011;8469;60.136;15.180;2023-03-21T15:25:04;0.90;;;0.62;;
16705;SDS011;8469;60.136;15.180;2023-03-21T15:27:27;0.60;;;0.30;;
16705;SDS011;8469;60.136;15.180;2023-03-21T15:29:56;2.35;;;1.30;;
16705;SDS011;8469;60.136;15.180;2023-03-21T15:32:24;1.25;;;0.60;;
16705;SDS011;8469;60.136;15.180;2023-03-21T15:34:53;0.47;;;0.47;;
16705;SDS011;8469;60.136;15.180;2023-03-21T15:37:23;0.47;;;0.47;;
16705;SDS011;8469;60.136;15.180;2023-03-21T15:39:50;0.95;;;0.95;;
16705;SDS011;8469;60.136;15.180;2023-03-21T15:42:22;2.27;;;0.98;;
16705;SDS011;8469;60.136;15.180;2023-03-21T15:44:51;0.90;;;0.90;;
16705;SDS011;8469;60.136;15.180;2023-03-21T15:50:07;7.60;;;0.97;;
16705;SDS011;8469;60.136;15.180;2023-03-21T15:52:36;2.33;;;0.62;;
16705;SDS011;8469;60.136;15.180;2023-03-21T15:55:14;1.82;;;0.78;;
16705;SDS011;8469;60.136;15.180;2023-03-21T15:57:34;1.72;;;0.75;;
16705;SDS011;8469;60.136;15.180;2023-03-21T16:05:32;1.40;;;0.70;;
16705;SDS011;8469;60.136;15.180;2023-03-21T16:08:04;5.12;;;0.90;;
16705;SDS011;8469;60.136;15.180;2023-03-21T16:10:33;1.90;;;0.77;;
16705;SDS011;8469;60.136;15.180;2023-03-21T16:13:02;1.80;;;0.50;;
16705;SDS011;8469;60.136;15.180;2023-03-21T16:15:30;0.93;;;0.65;;
16705;SDS011;8469;60.136;15.180;2023-03-21T16:17:59;5.08;;;0.80;;
16705;SDS011;8469;60.136;15.180;2023-03-21T16:20:27;1.50;;;0.60;;
16705;SDS011;8469;60.136;15.180;2023-03-21T16:22:57;1.12;;;0.68;;
16705;SDS011;8469;60.136;15.180;2023-03-21T16:25:24;1.05;;;0.90;;
16705;SDS011;8469;60.136;15.180;2023-03-21T16:27:52;2.02;;;0.88;;
16705;SDS011;8469;60.136;15.180;2023-03-21T16:30:20;0.60;;;0.60;;
16705;SDS011;8469;60.136;15.180;2023-03-21T16:32:48;0.82;;;0.70;;
16705;SDS011;8469;60.136;15.180;2023-03-21T16:35:18;2.20;;;0.70;;
16705;SDS011;8469;60.136;15.180;2023-03-21T16:37:47;1.15;;;0.50;;
16705;SDS011;8469;60.136;15.180;2023-03-21T16:42:46;3.83;;;0.75;;
16705;SDS011;8469;60.136;15.180;2023-03-21T16:45:15;2.30;;;0.78;;
16705;SDS011;8469;60.136;15.180;2023-03-21T16:47:43;0.60;;;0.60;;